createdAt,value
2019-03-11T00:04:39.907Z,3.53
2019-03-11T00:09:47.049Z,3.90
2019-03-11T00:14:54.165Z,4.38
2019-03-11T00:20:01.301Z,4.22
2019-03-11T00:25:08.473Z,4.48
2019-03-11T00:30:15.639Z,4.40
2019-03-11T00:35:22.786Z,4.44
2019-03-11T00:40:29.932Z,4.36
2019-03-11T00:45:37.084Z,4.19
2019-03-11T00:50:44.287Z,3.24
2019-03-11T00:55:51.442Z,2.71
2019-03-11T01:00:58.575Z,2.42
2019-03-11T01:06:05.705Z,1.86
2019-03-11T01:11:12.938Z,1.70
2019-03-11T01:16:20.266Z,1.64
2019-03-11T01:21:27.411Z,1.71
2019-03-11T01:26:34.560Z,1.91
2019-03-11T01:31:41.744Z,1.63
2019-03-11T01:36:48.881Z,1.53
2019-03-11T01:41:56.040Z,1.36
2019-03-11T01:47:03.241Z,1.34
2019-03-11T01:52:10.378Z,1.60
2019-03-11T01:57:17.575Z,1.54
2019-03-11T02:02:24.770Z,1.65
2019-03-11T02:07:31.961Z,1.42
2019-03-11T02:12:39.121Z,1.43
2019-03-11T02:17:46.234Z,1.30
2019-03-11T02:22:53.362Z,1.27
2019-03-11T02:28:00.630Z,1.33
2019-03-11T02:33:07.814Z,1.44
2019-03-11T02:38:14.988Z,1.36
2019-03-11T02:43:22.136Z,1.51
2019-03-11T02:48:29.427Z,1.23
2019-03-11T02:53:36.546Z,1.24
2019-03-11T02:58:43.729Z,1.35
2019-03-11T03:03:50.869Z,1.31
2019-03-11T03:08:58.008Z,1.55
2019-03-11T03:14:05.176Z,1.62
2019-03-11T03:19:12.302Z,1.94
2019-03-11T03:24:19.461Z,1.75
2019-03-11T03:29:26.623Z,2.09
2019-03-11T03:34:33.772Z,2.02
2019-03-11T03:39:41.977Z,2.26
2019-03-11T03:44:49.117Z,2.30
2019-03-11T03:49:56.346Z,2.03
2019-03-11T03:55:03.498Z,2.25
2019-03-11T04:00:10.652Z,2.09
2019-03-11T04:05:17.773Z,2.65
2019-03-11T04:10:24.933Z,2.60
2019-03-11T04:15:32.134Z,2.61
2019-03-11T04:20:39.891Z,2.45
2019-03-11T04:25:47.038Z,2.23
2019-03-11T04:31:43.451Z,2.05
2019-03-11T04:36:00.467Z,2.01
2019-03-11T04:41:07.542Z,2.00
2019-03-11T04:46:14.609Z,1.81
2019-03-11T04:51:21.652Z,1.80
2019-03-11T04:56:32.085Z,1.52
2019-03-11T05:01:29.122Z,1.65
2019-03-11T05:06:36.199Z,1.71
2019-03-11T05:11:43.276Z,1.85
2019-03-11T05:16:50.382Z,2.12
2019-03-11T05:21:57.482Z,2.16
2019-03-11T05:27:04.575Z,1.78
2019-03-11T05:32:11.660Z,2.20
2019-03-11T05:37:19.024Z,2.33
2019-03-11T05:42:26.283Z,2.60
2019-03-11T05:47:33.656Z,2.50
2019-03-11T05:52:40.854Z,2.46
2019-03-11T05:57:47.944Z,2.15
2019-03-11T06:02:54.991Z,1.94
2019-03-11T06:08:02.238Z,2.05
2019-03-11T06:13:09.311Z,2.19
2019-03-11T06:18:16.414Z,2.04
2019-03-11T06:23:23.457Z,2.51
2019-03-11T06:28:30.598Z,2.64
2019-03-11T06:33:37.709Z,3.21
2019-03-11T06:38:44.912Z,3.46
2019-03-11T06:43:52.101Z,2.97
2019-03-11T06:48:59.201Z,3.29
2019-03-11T06:54:06.300Z,3.41
2019-03-11T06:59:13.388Z,3.70
2019-03-11T07:04:20.482Z,3.94
2019-03-11T07:09:27.628Z,3.94
2019-03-11T07:14:34.800Z,3.65
2019-03-11T07:19:41.874Z,3.43
2019-03-11T07:24:48.958Z,3.93
2019-03-11T07:29:56.178Z,4.69
2019-03-11T07:35:08.296Z,5.46
2019-03-11T07:40:09.883Z,5.69
2019-03-11T07:45:16.971Z,5.47
2019-03-11T07:50:24.051Z,5.40
2019-03-11T07:55:31.163Z,5.34
2019-03-11T08:00:38.271Z,5.22
2019-03-11T08:05:45.585Z,4.94
2019-03-11T08:10:52.656Z,4.12
2019-03-11T08:15:59.751Z,3.64
2019-03-11T08:21:06.846Z,3.86
2019-03-11T08:26:13.920Z,3.83
2019-03-11T08:31:21.114Z,3.81
2019-03-11T08:36:28.374Z,4.00
2019-03-11T08:41:35.434Z,4.06
2019-03-11T08:46:44.516Z,4.07
2019-03-11T08:51:49.152Z,4.69
2019-03-11T08:56:56.224Z,4.33
2019-03-11T09:02:03.271Z,4.32
2019-03-11T09:07:10.343Z,4.52
2019-03-11T09:12:17.404Z,4.50
2019-03-11T09:17:24.500Z,4.49
2019-03-11T09:22:31.593Z,5.06
2019-03-11T09:27:38.685Z,5.09
2019-03-11T09:32:45.767Z,5.30
2019-03-11T09:37:52.880Z,4.95
2019-03-11T09:42:59.990Z,4.63
2019-03-11T09:48:07.062Z,4.34
2019-03-11T09:53:14.201Z,4.54
2019-03-11T09:58:21.257Z,5.03
2019-03-11T10:03:28.529Z,4.37
2019-03-11T10:08:35.777Z,4.19
2019-03-11T10:13:42.957Z,4.17
2019-03-11T10:18:50.481Z,4.00
2019-03-11T10:23:59.303Z,3.71
2019-03-11T10:29:04.712Z,4.19
2019-03-11T10:34:11.931Z,3.78
2019-03-11T10:39:19.353Z,4.19
2019-03-11T10:44:26.683Z,3.94
2019-03-11T10:49:33.775Z,3.46
2019-03-11T10:54:41.062Z,3.32
2019-03-11T10:59:48.373Z,3.11
2019-03-11T11:04:55.501Z,2.80
2019-03-11T11:10:02.702Z,2.41
2019-03-11T11:15:09.856Z,2.26
2019-03-11T11:20:17.013Z,2.14
2019-03-11T11:25:24.103Z,1.89
2019-03-11T11:30:31.144Z,1.95
2019-03-11T11:35:39.269Z,1.88
2019-03-11T11:40:46.494Z,1.93
2019-03-11T11:45:53.589Z,1.85
2019-03-11T11:51:00.687Z,2.03
2019-03-11T11:56:07.754Z,2.00
2019-03-11T12:01:14.821Z,2.16
2019-03-11T12:06:21.954Z,2.49
2019-03-11T12:11:29.248Z,2.34
2019-03-11T12:16:36.326Z,2.33
2019-03-11T12:21:43.390Z,2.28
2019-03-11T12:26:50.530Z,2.53
2019-03-11T12:31:57.638Z,2.28
2019-03-11T12:37:04.674Z,2.43
2019-03-11T12:42:11.798Z,2.10
2019-03-11T12:47:19.595Z,2.10
2019-03-11T12:52:26.665Z,1.67
2019-03-11T12:57:33.729Z,2.00
2019-03-11T13:02:41.396Z,2.14
2019-03-11T13:07:48.515Z,1.90
2019-03-11T13:12:55.643Z,1.99
2019-03-11T13:18:02.999Z,1.91
2019-03-11T13:23:10.056Z,1.92
2019-03-11T13:28:18.102Z,2.32
2019-03-11T13:33:25.197Z,2.88
2019-03-11T13:38:34.474Z,1.79
2019-03-11T13:43:39.499Z,1.85
2019-03-11T13:48:46.691Z,2.16
2019-03-11T13:53:53.796Z,1.85
2019-03-11T13:59:01.110Z,2.01
2019-03-11T14:04:08.201Z,1.96
2019-03-11T14:09:15.836Z,2.02
2019-03-11T14:14:23.212Z,2.02
2019-03-11T14:19:30.519Z,1.74
2019-03-11T14:24:38.292Z,1.92
2019-03-11T14:29:46.023Z,1.79
2019-03-11T14:34:53.119Z,1.89
2019-03-11T14:40:00.770Z,1.88
2019-03-11T14:45:08.685Z,2.03
2019-03-11T14:50:15.074Z,2.42
2019-03-11T14:55:22.396Z,1.86
2019-03-11T15:00:29.607Z,1.88
2019-03-11T15:05:37.556Z,1.99
2019-03-11T15:10:44.654Z,2.00
2019-03-11T15:15:51.880Z,1.83
2019-03-11T15:20:59.015Z,2.00
2019-03-11T15:26:06.262Z,1.94
2019-03-11T15:31:13.316Z,2.10
2019-03-11T15:36:20.507Z,2.10
2019-03-11T15:41:27.893Z,1.92
2019-03-11T15:46:39.151Z,2.32
2019-03-11T15:51:41.616Z,2.10
2019-03-11T15:56:49.317Z,1.95
2019-03-11T16:01:56.418Z,1.92
2019-03-11T16:07:03.560Z,2.11
2019-03-11T16:12:10.676Z,1.92
2019-03-11T16:17:17.896Z,2.07
2019-03-11T16:22:26.342Z,1.98
2019-03-11T16:27:31.760Z,2.00
2019-03-11T16:32:38.900Z,1.97
2019-03-11T16:37:46.546Z,1.98
2019-03-11T16:42:55.652Z,2.03
2019-03-11T16:48:02.838Z,1.98
2019-03-11T16:53:09.921Z,1.88
2019-03-11T16:58:17.298Z,2.24
2019-03-11T17:03:24.433Z,2.13
2019-03-11T17:08:31.498Z,2.04
2019-03-11T17:13:39.639Z,2.08
2019-03-11T17:18:46.709Z,1.96
2019-03-11T17:23:54.760Z,2.09
2019-03-11T17:29:02.611Z,2.01
2019-03-11T17:34:10.474Z,2.29
2019-03-11T17:39:17.560Z,2.02
2019-03-11T17:44:24.634Z,2.16
2019-03-11T17:49:31.987Z,1.99
2019-03-11T17:54:41.239Z,2.26
2019-03-11T17:59:49.280Z,2.10
2019-03-11T18:04:57.086Z,2.37
2019-03-11T18:10:04.891Z,2.17
2019-03-11T18:15:12.967Z,1.90
2019-03-11T18:20:20.512Z,2.20
2019-03-11T18:25:29.419Z,2.05
2019-03-11T18:30:39.470Z,1.93
2019-03-11T18:35:39.167Z,1.88
2019-03-11T18:40:47.835Z,1.95
2019-03-11T18:45:56.883Z,2.03
2019-03-11T18:51:10.828Z,2.02
2019-03-11T18:56:16.232Z,2.05
2019-03-11T19:01:14.958Z,2.13
2019-03-11T19:06:24.299Z,2.06
2019-03-11T19:11:31.978Z,2.28
2019-03-11T19:16:42.047Z,2.21
2019-03-11T19:21:42.325Z,2.21
2019-03-11T19:26:42.955Z,1.96
2019-03-11T19:31:42.540Z,2.27
2019-03-11T19:36:51.727Z,2.27
2019-03-11T19:42:01.767Z,2.16
2019-03-11T19:47:01.958Z,2.04
2019-03-11T19:51:59.408Z,2.24
2019-03-11T19:57:07.671Z,2.27
2019-03-11T20:02:15.460Z,2.46
2019-03-11T20:07:23.297Z,2.39
2019-03-11T20:12:30.833Z,2.36
2019-03-11T20:17:40.454Z,2.21
2019-03-11T20:22:48.098Z,2.18
2019-03-11T20:27:55.921Z,2.26
2019-03-11T20:33:04.573Z,2.24
2019-03-11T20:38:12.625Z,2.30
2019-03-11T20:43:21.524Z,2.42
2019-03-11T20:48:29.794Z,2.47
2019-03-11T20:53:37.896Z,2.35
2019-03-11T20:58:46.417Z,2.90
2019-03-11T21:03:54.086Z,2.92
2019-03-11T21:09:02.779Z,2.65
2019-03-11T21:14:10.612Z,2.35
2019-03-11T21:19:18.490Z,2.48
2019-03-11T21:24:26.246Z,2.66
2019-03-11T21:29:33.916Z,2.48
2019-03-11T21:34:41.755Z,2.62
2019-03-11T21:39:49.392Z,2.99
2019-03-11T21:44:57.113Z,3.09
2019-03-11T21:50:04.795Z,2.49
2019-03-11T21:55:13.598Z,2.65
2019-03-11T22:00:32.775Z,2.87
2019-03-11T22:05:28.390Z,2.91
2019-03-11T22:10:36.073Z,2.82
2019-03-11T22:15:44.856Z,2.54
2019-03-11T22:20:53.859Z,2.71
2019-03-11T22:26:03.095Z,2.49
2019-03-11T22:31:11.981Z,2.55
2019-03-11T22:36:19.684Z,2.53
2019-03-11T22:41:28.553Z,2.70
2019-03-11T22:46:38.870Z,3.13
2019-03-11T22:51:36.491Z,2.44
2019-03-11T22:56:45.505Z,2.72
2019-03-11T23:01:53.189Z,2.52
2019-03-11T23:07:00.750Z,2.55
2019-03-11T23:12:08.315Z,2.44
2019-03-11T23:17:15.907Z,2.40
2019-03-11T23:22:23.567Z,2.78
2019-03-11T23:27:31.255Z,2.68
2019-03-11T23:32:39.628Z,2.70
2019-03-11T23:37:47.195Z,2.42
2019-03-11T23:42:54.792Z,2.58
2019-03-11T23:48:02.500Z,2.63
2019-03-11T23:53:10.127Z,2.68
2019-03-11T23:58:17.931Z,2.84
